createdAt,value
2022-08-14T00:01:50.307Z,0
2022-08-14T00:06:56.552Z,0
2022-08-14T00:12:10.627Z,0
2022-08-14T00:17:21.200Z,0
2022-08-14T00:22:44.741Z,0
2022-08-14T00:27:45.719Z,0
2022-08-14T00:32:58.050Z,0
2022-08-14T00:38:10.403Z,0
2022-08-14T00:48:36.693Z,0
2022-08-14T00:53:47.106Z,0
2022-08-14T00:58:59.452Z,0
2022-08-14T01:04:37.115Z,0
2022-08-14T01:09:24.094Z,0
2022-08-14T01:14:36.241Z,0
2022-08-14T01:19:49.385Z,0
2022-08-14T01:25:00.970Z,0
2022-08-14T01:30:13.308Z,0
2022-08-14T01:36:02.952Z,0
2022-08-14T01:40:41.235Z,0
2022-08-14T01:45:57.534Z,0
2022-08-14T01:51:02.745Z,0
2022-08-14T01:56:18.177Z,0
2022-08-14T02:01:27.154Z,0
2022-08-14T02:06:39.471Z,0
2022-08-14T02:11:54.340Z,0
2022-08-14T02:17:04.171Z,0
2022-08-14T02:22:16.467Z,0
2022-08-14T02:28:19.597Z,0
2022-08-14T02:32:41.058Z,0
2022-08-14T02:37:53.435Z,0
2022-08-14T02:43:05.834Z,0
2022-08-14T02:49:02.355Z,0
2022-08-14T02:53:31.079Z,0
2022-08-14T02:58:42.539Z,0
2022-08-14T03:03:54.323Z,0
2022-08-14T03:09:06.524Z,0
2022-08-14T03:14:18.752Z,0
2022-08-14T03:19:30.945Z,0
2022-08-14T03:24:43.307Z,0
2022-08-14T03:35:08.782Z,0
2022-08-14T03:40:20.352Z,80
2022-08-14T03:45:34.401Z,361
2022-08-14T03:50:44.996Z,736
2022-08-14T03:55:58.242Z,1025
2022-08-14T04:01:10.501Z,1267
2022-08-14T04:06:22.793Z,1876
2022-08-14T04:11:35.447Z,2145
2022-08-14T04:16:48.023Z,2739
2022-08-14T04:22:02.543Z,2911
2022-08-14T04:27:12.799Z,3173
2022-08-14T04:32:59.590Z,3475
2022-08-14T04:37:37.581Z,3930
2022-08-14T04:42:51.225Z,4441
2022-08-14T04:48:02.153Z,4972
2022-08-14T04:53:14.353Z,5218
2022-08-14T04:58:32.535Z,5221
2022-08-14T05:03:39.022Z,5232
2022-08-14T05:08:56.993Z,5262
2022-08-14T05:14:16.388Z,5264
2022-08-14T05:19:17.502Z,5234
2022-08-14T05:24:28.374Z,5239
2022-08-14T05:29:40.595Z,5076
2022-08-14T05:34:53.106Z,5209
2022-08-14T05:40:05.866Z,5239
2022-08-14T05:50:30.471Z,5244
2022-08-14T05:55:44.441Z,5223
2022-08-14T06:00:55.148Z,5246
2022-08-14T06:06:07.477Z,5200
2022-08-14T06:11:20.170Z,5250
2022-08-14T06:16:32.047Z,5181
2022-08-14T06:21:44.542Z,5202
2022-08-14T06:27:04.218Z,5273
2022-08-14T06:32:36.438Z,5278
2022-08-14T06:42:34.099Z,5260
2022-08-14T06:47:46.594Z,5184
2022-08-14T06:52:59.098Z,5214
2022-08-14T06:58:13.833Z,5230
2022-08-14T07:03:24.037Z,5278
2022-08-14T07:08:36.292Z,5250
2022-08-14T07:13:48.756Z,5221
2022-08-14T07:19:00.667Z,5250
2022-08-14T07:24:21.585Z,5246
2022-08-14T07:29:26.441Z,5262
2022-08-14T07:34:41.065Z,5253
2022-08-14T07:39:50.258Z,5287
2022-08-14T07:45:02.590Z,5234
2022-08-14T07:50:16.432Z,5262
2022-08-14T07:55:27.256Z,5264
2022-08-14T08:00:39.906Z,5290
2022-08-14T08:05:52.755Z,5260
2022-08-14T08:11:08.339Z,5264
2022-08-14T08:16:16.789Z,5234
2022-08-14T08:21:33.135Z,5188
2022-08-14T08:26:41.527Z,5292
2022-08-14T08:31:54.059Z,5257
2022-08-14T08:37:07.049Z,5223
2022-08-14T08:42:22.776Z,5193
2022-08-14T08:47:31.278Z,5177
2022-08-14T08:52:46.745Z,5262
2022-08-14T08:57:55.884Z,5223
2022-08-14T09:03:09.989Z,5188
2022-08-14T09:08:21.706Z,5112
2022-08-14T09:13:33.120Z,5232
2022-08-14T09:18:45.492Z,5204
2022-08-14T09:30:31.815Z,5253
2022-08-14T09:35:28.602Z,5221
2022-08-14T09:40:41.205Z,5181
2022-08-14T09:45:53.984Z,5267
2022-08-14T09:56:24.515Z,5299
2022-08-14T10:01:30.989Z,5301
2022-08-14T10:06:43.240Z,5271
2022-08-14T10:11:58.821Z,5303
2022-08-14T10:17:08.547Z,5296
2022-08-14T10:23:13.791Z,5306
2022-08-14T10:27:32.278Z,5080
2022-08-14T10:32:52.018Z,5278
2022-08-14T10:37:56.890Z,5308
2022-08-14T10:43:09.116Z,5301
2022-08-14T10:48:24.206Z,5218
2022-08-14T10:53:33.656Z,5306
2022-08-14T10:58:46.449Z,5308
2022-08-14T11:03:59.026Z,5290
2022-08-14T11:09:11.258Z,5278
2022-08-14T11:14:26.383Z,5278
2022-08-14T11:19:36.083Z,5317
2022-08-14T11:24:50.387Z,5322
2022-08-14T11:30:49.433Z,5319
2022-08-14T11:35:12.882Z,5322
2022-08-14T11:40:28.444Z,5294
2022-08-14T11:45:37.720Z,5292
2022-08-14T11:50:50.045Z,5225
2022-08-14T11:56:03.817Z,5313
2022-08-14T12:01:14.879Z,5333
2022-08-14T12:06:28.301Z,5301
2022-08-14T12:11:41.296Z,5283
2022-08-14T12:16:52.038Z,5278
2022-08-14T12:22:06.826Z,5308
2022-08-14T12:27:16.847Z,5340
2022-08-14T12:32:29.250Z,5345
2022-08-14T12:37:41.558Z,5319
2022-08-14T12:42:56.587Z,5340
2022-08-14T12:48:20.863Z,5333
2022-08-14T12:53:18.757Z,5354
2022-08-14T12:58:36.170Z,5347
2022-08-14T13:03:44.195Z,5356
2022-08-14T13:09:00.207Z,5234
2022-08-14T13:14:09.032Z,5306
2022-08-14T13:19:21.459Z,5349
2022-08-14T13:24:34.003Z,5301
2022-08-14T13:29:47.031Z,5313
2022-08-14T13:34:58.560Z,5276
2022-08-14T13:40:10.795Z,5301
2022-08-14T13:45:22.775Z,5260
2022-08-14T13:50:35.312Z,5345
2022-08-14T13:55:52.255Z,5324
2022-08-14T14:01:00.382Z,5313
2022-08-14T14:06:12.989Z,5349
2022-08-14T14:11:25.318Z,5278
2022-08-14T14:16:37.756Z,5352
2022-08-14T14:21:50.184Z,5361
2022-08-14T14:27:13.736Z,5356
2022-08-14T14:32:17.428Z,5315
2022-08-14T14:37:26.252Z,5384
2022-08-14T14:42:38.637Z,5285
2022-08-14T14:47:51.070Z,5388
2022-08-14T14:53:12.601Z,5363
2022-08-14T14:58:16.015Z,5361
2022-08-14T15:03:28.875Z,5342
2022-08-14T15:08:56.117Z,5345
2022-08-14T15:13:53.491Z,5308
2022-08-14T15:19:05.617Z,5273
2022-08-14T15:24:21.075Z,5319
2022-08-14T15:29:31.098Z,5333
2022-08-14T15:34:46.208Z,5333
2022-08-14T15:39:55.332Z,5319
2022-08-14T15:45:07.658Z,5255
2022-08-14T15:50:20.081Z,5377
2022-08-14T15:55:33.222Z,5405
2022-08-14T16:00:49.315Z,5384
2022-08-14T16:05:58.081Z,5379
2022-08-14T16:11:10.286Z,5326
2022-08-14T16:16:34.047Z,5306
2022-08-14T16:21:34.951Z,5407
2022-08-14T16:26:51.702Z,5338
2022-08-14T16:31:59.472Z,5386
2022-08-14T16:37:11.600Z,5365
2022-08-14T16:42:39.698Z,5395
2022-08-14T16:47:36.451Z,5384
2022-08-14T16:52:54.916Z,5340
2022-08-14T16:58:00.587Z,5342
2022-08-14T17:03:13.021Z,5368
2022-08-14T17:08:28.756Z,5324
2022-08-14T17:13:47.762Z,5333
2022-08-14T17:18:55.372Z,5377
2022-08-14T17:24:51.196Z,5359
2022-08-14T17:29:14.327Z,5349
2022-08-14T17:34:26.724Z,5331
2022-08-14T17:39:39.654Z,5356
2022-08-14T17:50:04.057Z,5324
2022-08-14T17:56:00.986Z,5338
2022-08-14T18:00:28.546Z,5363
2022-08-14T18:06:06.745Z,5294
2022-08-14T18:10:55.651Z,5296
2022-08-14T18:16:04.807Z,5306
2022-08-14T18:21:25.187Z,4609
2022-08-14T18:26:35.972Z,3663
2022-08-14T18:31:43.734Z,2665
2022-08-14T18:36:56.794Z,1600
2022-08-14T18:42:23.231Z,811
2022-08-14T18:47:18.657Z,423
2022-08-14T18:52:33.829Z,0
2022-08-14T18:57:43.401Z,0
2022-08-14T19:02:55.523Z,0
2022-08-14T19:08:07.771Z,0
2022-08-14T19:13:20.523Z,0
2022-08-14T19:18:38.198Z,0
2022-08-14T19:23:59.668Z,0
2022-08-14T19:28:57.464Z,0
2022-08-14T19:34:09.691Z,0
2022-08-14T19:39:22.438Z,0
2022-08-14T19:44:34.535Z,0
2022-08-14T19:50:09.261Z,0
2022-08-14T19:54:59.093Z,0
2022-08-14T20:00:20.567Z,0
2022-08-14T20:05:23.814Z,0
2022-08-14T20:11:01.741Z,0
2022-08-14T20:15:48.276Z,0
2022-08-14T20:21:00.611Z,0
2022-08-14T20:26:12.806Z,0
2022-08-14T20:31:25.155Z,0
2022-08-14T20:36:37.479Z,0
2022-08-14T20:41:51.354Z,0
2022-08-14T20:47:02.053Z,0
2022-08-14T20:57:26.617Z,0
2022-08-14T21:02:49.934Z,0
2022-08-14T21:07:51.907Z,0
2022-08-14T21:13:14.450Z,0
2022-08-14T21:18:16.714Z,0
2022-08-14T21:23:32.373Z,0
2022-08-14T21:28:40.392Z,0
2022-08-14T21:33:56.465Z,0
2022-08-14T21:39:04.759Z,0
2022-08-14T21:44:20.479Z,0
2022-08-14T21:49:32.208Z,0
2022-08-14T21:54:49.831Z,0
2022-08-14T21:59:54.343Z,0
2022-08-14T22:05:06.565Z,0
2022-08-14T22:10:22.836Z,0
2022-08-14T22:15:31.187Z,0
2022-08-14T22:20:43.418Z,0
2022-08-14T22:25:55.732Z,0
2022-08-14T22:31:10.034Z,0
2022-08-14T22:36:24.987Z,0
2022-08-14T22:41:36.592Z,0
2022-08-14T22:46:45.430Z,0
2022-08-14T22:51:57.363Z,0
2022-08-14T22:57:10.348Z,0
2022-08-14T23:02:22.105Z,0
2022-08-14T23:08:57.160Z,0
2022-08-14T23:12:46.857Z,0
2022-08-14T23:17:59.201Z,0
2022-08-14T23:23:11.192Z,0
2022-08-14T23:28:33.140Z,0
2022-08-14T23:44:00.467Z,0
2022-08-14T23:49:12.729Z,0
2022-08-14T23:54:47.688Z,0
2022-08-14T23:59:45.011Z,0
